Terminal Aerodrome Forecast
Issued by NWS Blacksburg, VA

Current Version | Previous Version | Text Only | Print | Product List | Glossary Off
Versions: 1 2 3 4 5 6 7 8 9 10 11 12 13 14 15 16 17 18 19 20 21 22 23 24 25 26 27 28 29 30 31 32 33 34 35 36 37 38 39 40 41 42

241
FTUS41 KRNK 221246 AAA
TAFBLF
TAF AMD
KBLF 221246Z 2213/2312 14006KT P6SM OVC004
      TEMPO 2213/2215 1/2SM FG VV002
     FM221500 13009KT 3SM -RA BR OVC008
     FM222000 13010G20KT 6SM -SHRA BR OVC020
     FM230200 12010G20KT 3SM SHRA BR BKN007 OVC012
     FM230900 11008KT 5SM -SHRA SCT007 OVC015=

USA.gov is the U.S. government's official web portal to all federal, state and local government web resources and services.